Terminal Aerodrome Forecast
Issued by NWS Riverton, WY

Home | Current Version | Previous Version | Text Only | Print | Product List | Glossary On
Versions: 1 2 3 4 5 6 7 8 9 10 11 12 13 14
000
FTUS45 KRIW 260500
TAFRIW
TAF
KRIW 260531Z 2606/2706 VRB05KT 4SM -SN SCT016 OVC028
      TEMPO 2606/2609 2SM -SN BKN016
     FM261100 25005KT P6SM SCT035 BKN050
     FM262000 29012KT P6SM SCT050 SCT110
     FM270100 30014KT P6SM SCT110=

USA.gov is the U.S. government's official web portal to all federal, state and local government web resources and services.